sensor_id;sensor_type;location;lat;lon;timestamp;P1;durP1;ratioP1;P2;durP2;ratioP2
47922;SDS011;33688;44.354;9.228;2023-02-19T00:01:29;2.35;;;2.10;;
47922;SDS011;33688;44.354;9.228;2023-02-19T00:04:08;2.50;;;2.22;;
47922;SDS011;33688;44.354;9.228;2023-02-19T00:06:37;2.03;;;1.83;;
47922;SDS011;33688;44.354;9.228;2023-02-19T00:09:03;1.98;;;1.77;;
47922;SDS011;33688;44.354;9.228;2023-02-19T00:11:30;2.25;;;2.08;;
47922;SDS011;33688;44.354;9.228;2023-02-19T00:13:57;2.78;;;2.47;;
47922;SDS011;33688;44.354;9.228;2023-02-19T00:16:24;2.25;;;2.05;;
47922;SDS011;33688;44.354;9.228;2023-02-19T00:18:54;2.60;;;2.40;;
47922;SDS011;33688;44.354;9.228;2023-02-19T00:21:21;3.30;;;2.45;;
47922;SDS011;33688;44.354;9.228;2023-02-19T00:23:50;2.63;;;2.40;;
47922;SDS011;33688;44.354;9.228;2023-02-19T00:26:26;2.03;;;1.83;;
47922;SDS011;33688;44.354;9.228;2023-02-19T00:28:53;2.78;;;2.00;;
47922;SDS011;33688;44.354;9.228;2023-02-19T00:33:50;2.83;;;2.20;;
47922;SDS011;33688;44.354;9.228;2023-02-19T00:36:17;2.97;;;2.50;;
47922;SDS011;33688;44.354;9.228;2023-02-19T00:38:43;2.30;;;2.10;;
47922;SDS011;33688;44.354;9.228;2023-02-19T00:41:09;2.78;;;2.15;;
47922;SDS011;33688;44.354;9.228;2023-02-19T00:43:58;2.83;;;1.95;;
47922;SDS011;33688;44.354;9.228;2023-02-19T00:46:26;1.85;;;1.60;;
47922;SDS011;33688;44.354;9.228;2023-02-19T00:48:56;2.22;;;2.03;;
47922;SDS011;33688;44.354;9.228;2023-02-19T00:51:23;2.78;;;2.47;;
47922;SDS011;33688;44.354;9.228;2023-02-19T00:53:50;2.08;;;1.88;;
47922;SDS011;33688;44.354;9.228;2023-02-19T00:56:16;2.88;;;2.00;;
47922;SDS011;33688;44.354;9.228;2023-02-19T00:58:41;3.33;;;2.10;;
47922;SDS011;33688;44.354;9.228;2023-02-19T01:01:07;2.30;;;1.77;;
47922;SDS011;33688;44.354;9.228;2023-02-19T01:03:34;2.28;;;2.00;;
47922;SDS011;33688;44.354;9.228;2023-02-19T01:06:01;4.75;;;2.60;;
47922;SDS011;33688;44.354;9.228;2023-02-19T01:08:28;2.47;;;2.25;;
47922;SDS011;33688;44.354;9.228;2023-02-19T01:10:55;2.85;;;2.20;;
47922;SDS011;33688;44.354;9.228;2023-02-19T01:13:21;2.10;;;1.90;;
47922;SDS011;33688;44.354;9.228;2023-02-19T01:15:46;2.28;;;1.70;;
47922;SDS011;33688;44.354;9.228;2023-02-19T01:18:12;2.40;;;2.20;;
47922;SDS011;33688;44.354;9.228;2023-02-19T01:20:38;2.53;;;2.33;;
47922;SDS011;33688;44.354;9.228;2023-02-19T01:23:05;1.85;;;1.75;;
47922;SDS011;33688;44.354;9.228;2023-02-19T01:25:30;2.50;;;2.28;;
47922;SDS011;33688;44.354;9.228;2023-02-19T01:27:56;2.05;;;1.83;;
47922;SDS011;33688;44.354;9.228;2023-02-19T01:30:21;2.50;;;2.30;;
47922;SDS011;33688;44.354;9.228;2023-02-19T01:32:47;3.58;;;2.40;;
47922;SDS011;33688;44.354;9.228;2023-02-19T01:35:12;2.05;;;1.70;;
47922;SDS011;33688;44.354;9.228;2023-02-19T01:37:38;4.55;;;2.35;;
47922;SDS011;33688;44.354;9.228;2023-02-19T01:40:04;2.67;;;1.70;;
47922;SDS011;33688;44.354;9.228;2023-02-19T01:42:29;3.20;;;2.20;;
47922;SDS011;33688;44.354;9.228;2023-02-19T01:48:02;1.85;;;1.67;;
47922;SDS011;33688;44.354;9.228;2023-02-19T01:50:33;2.13;;;1.92;;
47922;SDS011;33688;44.354;9.228;2023-02-19T01:53:02;2.17;;;1.98;;
47922;SDS011;33688;44.354;9.228;2023-02-19T01:55:30;1.98;;;1.73;;
47922;SDS011;33688;44.354;9.228;2023-02-19T01:57:56;2.50;;;2.03;;
47922;SDS011;33688;44.354;9.228;2023-02-19T02:00:22;2.60;;;2.00;;
47922;SDS011;33688;44.354;9.228;2023-02-19T02:02:52;2.63;;;2.15;;
47922;SDS011;33688;44.354;9.228;2023-02-19T02:05:24;2.58;;;2.05;;
47922;SDS011;33688;44.354;9.228;2023-02-19T02:07:53;2.20;;;1.85;;
47922;SDS011;33688;44.354;9.228;2023-02-19T02:10:36;2.00;;;1.70;;
47922;SDS011;33688;44.354;9.228;2023-02-19T02:13:02;2.30;;;1.75;;
47922;SDS011;33688;44.354;9.228;2023-02-19T02:15:30;1.58;;;1.48;;
47922;SDS011;33688;44.354;9.228;2023-02-19T02:18:09;2.47;;;1.70;;
47922;SDS011;33688;44.354;9.228;2023-02-19T02:20:57;1.83;;;1.35;;
47922;SDS011;33688;44.354;9.228;2023-02-19T02:29:55;2.85;;;2.40;;
47922;SDS011;33688;44.354;9.228;2023-02-19T02:32:26;1.70;;;1.60;;
47922;SDS011;33688;44.354;9.228;2023-02-19T02:35:03;2.05;;;1.70;;
47922;SDS011;33688;44.354;9.228;2023-02-19T02:37:33;1.67;;;1.58;;
47922;SDS011;33688;44.354;9.228;2023-02-19T02:40:02;2.55;;;2.08;;
47922;SDS011;33688;44.354;9.228;2023-02-19T02:42:29;1.75;;;1.65;;
47922;SDS011;33688;44.354;9.228;2023-02-19T02:50:32;1.73;;;1.63;;
47922;SDS011;33688;44.354;9.228;2023-02-19T02:53:02;2.05;;;1.90;;
47922;SDS011;33688;44.354;9.228;2023-02-19T02:55:50;2.10;;;1.50;;
47922;SDS011;33688;44.354;9.228;2023-02-19T02:58:17;1.83;;;1.58;;
47922;SDS011;33688;44.354;9.228;2023-02-19T03:00:47;1.95;;;1.73;;
47922;SDS011;33688;44.354;9.228;2023-02-19T03:03:37;2.22;;;2.03;;
47922;SDS011;33688;44.354;9.228;2023-02-19T03:06:04;2.08;;;1.70;;
47922;SDS011;33688;44.354;9.228;2023-02-19T03:09:06;2.10;;;1.75;;
47922;SDS011;33688;44.354;9.228;2023-02-19T03:11:30;1.70;;;1.52;;
47922;SDS011;33688;44.354;9.228;2023-02-19T03:14:17;1.88;;;1.77;;
47922;SDS011;33688;44.354;9.228;2023-02-19T03:17:07;1.67;;;1.58;;
47922;SDS011;33688;44.354;9.228;2023-02-19T03:19:55;2.10;;;1.90;;
47922;SDS011;33688;44.354;9.228;2023-02-19T03:22:23;2.05;;;1.83;;
47922;SDS011;33688;44.354;9.228;2023-02-19T03:24:55;1.60;;;1.45;;
47922;SDS011;33688;44.354;9.228;2023-02-19T03:27:47;1.73;;;1.52;;
47922;SDS011;33688;44.354;9.228;2023-02-19T03:30:18;1.85;;;1.60;;
47922;SDS011;33688;44.354;9.228;2023-02-19T03:33:03;2.05;;;1.48;;
47922;SDS011;33688;44.354;9.228;2023-02-19T03:35:34;1.75;;;1.50;;
47922;SDS011;33688;44.354;9.228;2023-02-19T03:38:05;1.92;;;1.80;;
47922;SDS011;33688;44.354;9.228;2023-02-19T03:41:05;1.67;;;1.58;;
47922;SDS011;33688;44.354;9.228;2023-02-19T03:43:46;1.85;;;1.75;;
47922;SDS011;33688;44.354;9.228;2023-02-19T03:48:58;1.45;;;1.35;;
47922;SDS011;33688;44.354;9.228;2023-02-19T03:51:40;1.70;;;1.60;;
47922;SDS011;33688;44.354;9.228;2023-02-19T03:54:50;2.17;;;1.80;;
47922;SDS011;33688;44.354;9.228;2023-02-19T03:57:26;1.90;;;1.80;;
47922;SDS011;33688;44.354;9.228;2023-02-19T03:59:58;1.60;;;1.50;;
47922;SDS011;33688;44.354;9.228;2023-02-19T04:02:53;1.95;;;1.65;;
47922;SDS011;33688;44.354;9.228;2023-02-19T04:05:25;2.08;;;1.88;;
47922;SDS011;33688;44.354;9.228;2023-02-19T04:07:52;1.48;;;1.23;;
47922;SDS011;33688;44.354;9.228;2023-02-19T04:10:24;2.45;;;1.58;;
47922;SDS011;33688;44.354;9.228;2023-02-19T04:12:53;1.88;;;1.58;;
47922;SDS011;33688;44.354;9.228;2023-02-19T04:15:23;1.65;;;1.38;;
47922;SDS011;33688;44.354;9.228;2023-02-19T04:17:55;1.77;;;1.67;;
47922;SDS011;33688;44.354;9.228;2023-02-19T04:20:23;1.73;;;1.60;;
47922;SDS011;33688;44.354;9.228;2023-02-19T04:22:52;1.52;;;1.42;;
47922;SDS011;33688;44.354;9.228;2023-02-19T04:25:18;1.80;;;1.55;;
47922;SDS011;33688;44.354;9.228;2023-02-19T04:27:44;1.33;;;1.23;;
47922;SDS011;33688;44.354;9.228;2023-02-19T04:30:10;1.70;;;1.60;;
47922;SDS011;33688;44.354;9.228;2023-02-19T04:32:37;2.30;;;2.00;;
47922;SDS011;33688;44.354;9.228;2023-02-19T04:35:02;1.98;;;1.77;;
47922;SDS011;33688;44.354;9.228;2023-02-19T04:37:28;1.67;;;1.48;;
47922;SDS011;33688;44.354;9.228;2023-02-19T04:39:54;1.55;;;1.45;;
47922;SDS011;33688;44.354;9.228;2023-02-19T04:42:19;1.58;;;1.20;;
47922;SDS011;33688;44.354;9.228;2023-02-19T04:44:45;1.70;;;1.60;;
47922;SDS011;33688;44.354;9.228;2023-02-19T04:47:10;2.13;;;1.92;;
47922;SDS011;33688;44.354;9.228;2023-02-19T04:49:36;1.92;;;1.52;;
47922;SDS011;33688;44.354;9.228;2023-02-19T04:52:02;1.50;;;1.40;;
47922;SDS011;33688;44.354;9.228;2023-02-19T04:54:27;2.22;;;1.70;;
47922;SDS011;33688;44.354;9.228;2023-02-19T04:56:53;1.35;;;1.20;;
47922;SDS011;33688;44.354;9.228;2023-02-19T04:59:18;1.50;;;1.40;;
47922;SDS011;33688;44.354;9.228;2023-02-19T05:01:44;1.60;;;1.50;;
47922;SDS011;33688;44.354;9.228;2023-02-19T05:04:10;1.80;;;1.65;;
47922;SDS011;33688;44.354;9.228;2023-02-19T05:06:35;1.58;;;1.45;;
47922;SDS011;33688;44.354;9.228;2023-02-19T05:09:01;1.58;;;1.48;;
47922;SDS011;33688;44.354;9.228;2023-02-19T05:11:27;1.85;;;1.70;;
47922;SDS011;33688;44.354;9.228;2023-02-19T05:13:53;1.65;;;1.55;;
47922;SDS011;33688;44.354;9.228;2023-02-19T05:16:20;1.77;;;1.50;;
47922;SDS011;33688;44.354;9.228;2023-02-19T05:18:45;1.58;;;1.20;;
47922;SDS011;33688;44.354;9.228;2023-02-19T05:21:12;1.98;;;1.52;;
47922;SDS011;33688;44.354;9.228;2023-02-19T05:23:38;1.60;;;1.48;;
47922;SDS011;33688;44.354;9.228;2023-02-19T05:26:04;1.67;;;1.30;;
47922;SDS011;33688;44.354;9.228;2023-02-19T05:28:36;2.10;;;1.88;;
47922;SDS011;33688;44.354;9.228;2023-02-19T05:31:06;2.33;;;1.40;;
47922;SDS011;33688;44.354;9.228;2023-02-19T05:33:33;1.63;;;1.52;;
47922;SDS011;33688;44.354;9.228;2023-02-19T05:35:58;1.65;;;1.55;;
47922;SDS011;33688;44.354;9.228;2023-02-19T05:38:28;1.50;;;1.40;;
47922;SDS011;33688;44.354;9.228;2023-02-19T05:40:54;1.40;;;1.30;;
47922;SDS011;33688;44.354;9.228;2023-02-19T05:43:20;1.33;;;1.23;;
47922;SDS011;33688;44.354;9.228;2023-02-19T05:45:45;1.60;;;1.50;;
47922;SDS011;33688;44.354;9.228;2023-02-19T05:48:11;1.23;;;1.13;;
47922;SDS011;33688;44.354;9.228;2023-02-19T05:50:38;1.02;;;0.88;;
47922;SDS011;33688;44.354;9.228;2023-02-19T05:53:12;1.92;;;1.60;;
47922;SDS011;33688;44.354;9.228;2023-02-19T05:55:38;1.13;;;1.02;;
47922;SDS011;33688;44.354;9.228;2023-02-19T05:58:03;1.50;;;1.40;;
47922;SDS011;33688;44.354;9.228;2023-02-19T06:00:30;1.60;;;1.50;;
47922;SDS011;33688;44.354;9.228;2023-02-19T06:02:56;1.55;;;1.40;;
47922;SDS011;33688;44.354;9.228;2023-02-19T06:05:22;1.30;;;1.20;;
47922;SDS011;33688;44.354;9.228;2023-02-19T06:07:48;1.33;;;1.23;;
47922;SDS011;33688;44.354;9.228;2023-02-19T06:10:14;1.35;;;1.25;;
47922;SDS011;33688;44.354;9.228;2023-02-19T06:12:40;2.08;;;1.33;;
47922;SDS011;33688;44.354;9.228;2023-02-19T06:15:06;1.85;;;1.42;;
47922;SDS011;33688;44.354;9.228;2023-02-19T06:17:32;1.90;;;1.35;;
47922;SDS011;33688;44.354;9.228;2023-02-19T06:19:58;1.20;;;1.10;;
47922;SDS011;33688;44.354;9.228;2023-02-19T06:22:24;1.50;;;1.40;;
47922;SDS011;33688;44.354;9.228;2023-02-19T06:24:50;1.88;;;1.67;;
47922;SDS011;33688;44.354;9.228;2023-02-19T06:27:16;1.50;;;1.40;;
47922;SDS011;33688;44.354;9.228;2023-02-19T06:29:42;1.55;;;1.38;;
47922;SDS011;33688;44.354;9.228;2023-02-19T06:32:08;1.20;;;1.10;;
47922;SDS011;33688;44.354;9.228;2023-02-19T06:34:34;1.58;;;1.48;;
47922;SDS011;33688;44.354;9.228;2023-02-19T06:37:00;1.70;;;1.40;;
47922;SDS011;33688;44.354;9.228;2023-02-19T06:39:26;1.48;;;1.25;;
47922;SDS011;33688;44.354;9.228;2023-02-19T06:41:55;1.20;;;1.10;;
47922;SDS011;33688;44.354;9.228;2023-02-19T06:44:21;1.55;;;1.15;;
47922;SDS011;33688;44.354;9.228;2023-02-19T06:46:46;1.35;;;1.25;;
47922;SDS011;33688;44.354;9.228;2023-02-19T06:49:12;1.88;;;1.38;;
47922;SDS011;33688;44.354;9.228;2023-02-19T06:51:39;2.47;;;1.70;;
47922;SDS011;33688;44.354;9.228;2023-02-19T06:54:05;0.90;;;0.90;;
47922;SDS011;33688;44.354;9.228;2023-02-19T06:56:32;1.10;;;1.00;;
47922;SDS011;33688;44.354;9.228;2023-02-19T07:01:30;1.50;;;1.30;;
47922;SDS011;33688;44.354;9.228;2023-02-19T07:03:56;1.60;;;1.50;;
47922;SDS011;33688;44.354;9.228;2023-02-19T07:06:22;1.73;;;1.63;;
47922;SDS011;33688;44.354;9.228;2023-02-19T07:08:49;1.35;;;1.00;;
47922;SDS011;33688;44.354;9.228;2023-02-19T07:11:14;1.55;;;1.45;;
47922;SDS011;33688;44.354;9.228;2023-02-19T07:13:41;1.52;;;1.15;;
47922;SDS011;33688;44.354;9.228;2023-02-19T07:16:07;1.15;;;1.05;;
47922;SDS011;33688;44.354;9.228;2023-02-19T07:18:33;1.50;;;1.40;;
47922;SDS011;33688;44.354;9.228;2023-02-19T07:21:09;1.38;;;1.23;;
47922;SDS011;33688;44.354;9.228;2023-02-19T07:23:36;1.35;;;1.20;;
47922;SDS011;33688;44.354;9.228;2023-02-19T07:26:02;1.60;;;1.50;;
47922;SDS011;33688;44.354;9.228;2023-02-19T07:28:29;2.25;;;1.50;;
47922;SDS011;33688;44.354;9.228;2023-02-19T07:30:58;1.20;;;1.10;;
47922;SDS011;33688;44.354;9.228;2023-02-19T07:33:25;1.45;;;1.27;;
47922;SDS011;33688;44.354;9.228;2023-02-19T07:35:51;1.67;;;1.50;;
47922;SDS011;33688;44.354;9.228;2023-02-19T07:38:17;1.77;;;1.23;;
47922;SDS011;33688;44.354;9.228;2023-02-19T07:40:51;1.70;;;1.60;;
47922;SDS011;33688;44.354;9.228;2023-02-19T07:43:17;1.30;;;1.20;;
47922;SDS011;33688;44.354;9.228;2023-02-19T07:45:43;1.50;;;1.38;;
47922;SDS011;33688;44.354;9.228;2023-02-19T07:48:09;1.65;;;1.50;;
47922;SDS011;33688;44.354;9.228;2023-02-19T07:50:35;1.33;;;1.23;;
47922;SDS011;33688;44.354;9.228;2023-02-19T07:53:00;1.25;;;1.15;;
47922;SDS011;33688;44.354;9.228;2023-02-19T07:55:26;1.77;;;1.40;;
47922;SDS011;33688;44.354;9.228;2023-02-19T07:57:51;1.63;;;1.13;;
47922;SDS011;33688;44.354;9.228;2023-02-19T08:00:17;1.30;;;1.08;;
47922;SDS011;33688;44.354;9.228;2023-02-19T08:02:44;1.33;;;1.23;;
47922;SDS011;33688;44.354;9.228;2023-02-19T08:05:26;1.40;;;1.30;;
47922;SDS011;33688;44.354;9.228;2023-02-19T08:07:52;1.35;;;1.25;;
47922;SDS011;33688;44.354;9.228;2023-02-19T08:10:18;1.48;;;1.38;;
47922;SDS011;33688;44.354;9.228;2023-02-19T08:13:02;1.17;;;1.08;;
47922;SDS011;33688;44.354;9.228;2023-02-19T08:15:44;1.45;;;1.33;;
47922;SDS011;33688;44.354;9.228;2023-02-19T08:18:10;1.95;;;1.38;;
47922;SDS011;33688;44.354;9.228;2023-02-19T08:20:36;1.33;;;1.23;;
47922;SDS011;33688;44.354;9.228;2023-02-19T08:23:02;1.30;;;1.20;;
47922;SDS011;33688;44.354;9.228;2023-02-19T08:25:28;1.35;;;1.25;;
47922;SDS011;33688;44.354;9.228;2023-02-19T08:27:54;1.30;;;1.20;;
47922;SDS011;33688;44.354;9.228;2023-02-19T08:30:20;2.05;;;1.15;;
47922;SDS011;33688;44.354;9.228;2023-02-19T08:32:46;1.55;;;1.23;;
47922;SDS011;33688;44.354;9.228;2023-02-19T08:35:11;1.40;;;1.30;;
47922;SDS011;33688;44.354;9.228;2023-02-19T08:37:37;1.27;;;1.17;;
47922;SDS011;33688;44.354;9.228;2023-02-19T08:40:02;1.95;;;1.13;;
47922;SDS011;33688;44.354;9.228;2023-02-19T08:42:28;1.40;;;1.30;;
47922;SDS011;33688;44.354;9.228;2023-02-19T08:44:54;1.35;;;1.25;;
47922;SDS011;33688;44.354;9.228;2023-02-19T08:47:20;0.88;;;0.88;;
47922;SDS011;33688;44.354;9.228;2023-02-19T08:49:46;1.13;;;1.00;;
47922;SDS011;33688;44.354;9.228;2023-02-19T08:52:11;2.05;;;1.60;;
47922;SDS011;33688;44.354;9.228;2023-02-19T08:54:37;0.95;;;0.95;;
47922;SDS011;33688;44.354;9.228;2023-02-19T08:57:02;1.42;;;1.33;;
47922;SDS011;33688;44.354;9.228;2023-02-19T08:59:30;1.30;;;1.20;;
47922;SDS011;33688;44.354;9.228;2023-02-19T09:01:58;1.10;;;1.00;;
47922;SDS011;33688;44.354;9.228;2023-02-19T09:04:24;1.50;;;1.30;;
47922;SDS011;33688;44.354;9.228;2023-02-19T09:06:49;1.48;;;1.30;;
47922;SDS011;33688;44.354;9.228;2023-02-19T09:09:15;1.88;;;1.40;;
47922;SDS011;33688;44.354;9.228;2023-02-19T09:11:41;1.30;;;1.20;;
47922;SDS011;33688;44.354;9.228;2023-02-19T09:14:07;1.42;;;1.20;;
47922;SDS011;33688;44.354;9.228;2023-02-19T09:16:33;1.10;;;1.00;;
47922;SDS011;33688;44.354;9.228;2023-02-19T09:18:59;1.20;;;1.10;;
47922;SDS011;33688;44.354;9.228;2023-02-19T09:21:25;1.20;;;1.10;;
47922;SDS011;33688;44.354;9.228;2023-02-19T09:23:50;1.38;;;1.23;;
47922;SDS011;33688;44.354;9.228;2023-02-19T09:26:16;1.83;;;1.10;;
47922;SDS011;33688;44.354;9.228;2023-02-19T09:28:42;1.30;;;1.20;;
47922;SDS011;33688;44.354;9.228;2023-02-19T09:31:09;1.23;;;1.13;;
47922;SDS011;33688;44.354;9.228;2023-02-19T09:33:36;1.23;;;1.00;;
47922;SDS011;33688;44.354;9.228;2023-02-19T09:36:02;1.88;;;1.55;;
47922;SDS011;33688;44.354;9.228;2023-02-19T09:38:28;1.60;;;1.50;;
47922;SDS011;33688;44.354;9.228;2023-02-19T09:40:58;1.33;;;0.95;;
47922;SDS011;33688;44.354;9.228;2023-02-19T09:43:25;1.67;;;1.00;;
47922;SDS011;33688;44.354;9.228;2023-02-19T09:45:55;1.42;;;1.33;;
47922;SDS011;33688;44.354;9.228;2023-02-19T09:48:25;2.15;;;1.50;;
47922;SDS011;33688;44.354;9.228;2023-02-19T09:50:51;1.05;;;0.98;;
47922;SDS011;33688;44.354;9.228;2023-02-19T09:53:24;1.33;;;1.17;;
47922;SDS011;33688;44.354;9.228;2023-02-19T09:55:51;1.92;;;1.67;;
47922;SDS011;33688;44.354;9.228;2023-02-19T10:03:20;1.17;;;1.08;;
47922;SDS011;33688;44.354;9.228;2023-02-19T10:05:47;1.17;;;0.93;;
47922;SDS011;33688;44.354;9.228;2023-02-19T10:08:17;1.42;;;1.33;;
47922;SDS011;33688;44.354;9.228;2023-02-19T10:10:44;1.38;;;1.27;;
47922;SDS011;33688;44.354;9.228;2023-02-19T10:13:20;0.93;;;0.93;;
47922;SDS011;33688;44.354;9.228;2023-02-19T10:15:49;1.20;;;1.10;;
47922;SDS011;33688;44.354;9.228;2023-02-19T10:18:16;1.48;;;1.38;;
47922;SDS011;33688;44.354;9.228;2023-02-19T10:20:43;1.52;;;1.42;;
47922;SDS011;33688;44.354;9.228;2023-02-19T10:23:10;1.38;;;1.20;;
47922;SDS011;33688;44.354;9.228;2023-02-19T10:25:42;1.10;;;1.00;;
47922;SDS011;33688;44.354;9.228;2023-02-19T10:28:14;1.27;;;1.13;;
47922;SDS011;33688;44.354;9.228;2023-02-19T10:30:43;1.63;;;1.40;;
47922;SDS011;33688;44.354;9.228;2023-02-19T10:33:10;1.30;;;1.20;;
47922;SDS011;33688;44.354;9.228;2023-02-19T10:35:51;1.20;;;1.10;;
47922;SDS011;33688;44.354;9.228;2023-02-19T10:38:30;1.65;;;1.10;;
47922;SDS011;33688;44.354;9.228;2023-02-19T10:41:03;1.40;;;1.00;;
47922;SDS011;33688;44.354;9.228;2023-02-19T10:43:31;1.05;;;1.00;;
47922;SDS011;33688;44.354;9.228;2023-02-19T10:46:01;1.20;;;1.10;;
47922;SDS011;33688;44.354;9.228;2023-02-19T10:48:33;1.30;;;1.13;;
47922;SDS011;33688;44.354;9.228;2023-02-19T10:51:04;1.30;;;1.02;;
47922;SDS011;33688;44.354;9.228;2023-02-19T10:53:37;1.30;;;1.20;;
47922;SDS011;33688;44.354;9.228;2023-02-19T10:56:12;1.20;;;1.08;;
47922;SDS011;33688;44.354;9.228;2023-02-19T10:58:38;1.17;;;1.08;;
47922;SDS011;33688;44.354;9.228;2023-02-19T11:03:44;1.42;;;1.27;;
47922;SDS011;33688;44.354;9.228;2023-02-19T11:06:12;1.30;;;1.20;;
47922;SDS011;33688;44.354;9.228;2023-02-19T11:08:49;1.17;;;1.02;;
47922;SDS011;33688;44.354;9.228;2023-02-19T11:14:03;1.40;;;1.05;;
47922;SDS011;33688;44.354;9.228;2023-02-19T11:16:44;1.45;;;1.35;;
47922;SDS011;33688;44.354;9.228;2023-02-19T11:19:27;1.30;;;1.20;;
47922;SDS011;33688;44.354;9.228;2023-02-19T11:22:00;1.40;;;1.30;;
47922;SDS011;33688;44.354;9.228;2023-02-19T11:24:31;2.53;;;1.30;;
47922;SDS011;33688;44.354;9.228;2023-02-19T11:26:58;1.57;;;1.20;;
47922;SDS011;33688;44.354;9.228;2023-02-19T11:29:25;1.50;;;1.23;;
47922;SDS011;33688;44.354;9.228;2023-02-19T11:31:53;1.10;;;1.00;;
47922;SDS011;33688;44.354;9.228;2023-02-19T11:36:53;1.33;;;1.23;;
47922;SDS011;33688;44.354;9.228;2023-02-19T11:39:32;1.50;;;1.33;;
47922;SDS011;33688;44.354;9.228;2023-02-19T11:44:50;1.30;;;1.17;;
47922;SDS011;33688;44.354;9.228;2023-02-19T11:50:02;1.25;;;1.15;;
47922;SDS011;33688;44.354;9.228;2023-02-19T12:22:29;1.55;;;1.45;;
47922;SDS011;33688;44.354;9.228;2023-02-19T12:28:01;1.10;;;1.00;;
47922;SDS011;33688;44.354;9.228;2023-02-19T12:41:43;1.30;;;1.20;;
47922;SDS011;33688;44.354;9.228;2023-02-19T12:44:21;1.52;;;1.42;;
47922;SDS011;33688;44.354;9.228;2023-02-19T12:46:57;2.38;;;1.42;;
47922;SDS011;33688;44.354;9.228;2023-02-19T12:51:54;1.48;;;1.35;;
47922;SDS011;33688;44.354;9.228;2023-02-19T12:56:54;1.95;;;1.83;;
47922;SDS011;33688;44.354;9.228;2023-02-19T13:07:39;1.73;;;1.25;;
47922;SDS011;33688;44.354;9.228;2023-02-19T13:12:38;1.55;;;1.45;;
47922;SDS011;33688;44.354;9.228;2023-02-19T13:17:52;1.73;;;1.27;;
47922;SDS011;33688;44.354;9.228;2023-02-19T13:37:20;1.52;;;1.10;;
47922;SDS011;33688;44.354;9.228;2023-02-19T13:39:50;3.10;;;1.40;;
47922;SDS011;33688;44.354;9.228;2023-02-19T13:42:33;1.30;;;1.20;;
47922;SDS011;33688;44.354;9.228;2023-02-19T13:45:01;1.92;;;1.73;;
47922;SDS011;33688;44.354;9.228;2023-02-19T13:50:27;1.92;;;1.35;;
47922;SDS011;33688;44.354;9.228;2023-02-19T13:52:54;2.47;;;1.40;;
47922;SDS011;33688;44.354;9.228;2023-02-19T14:00:59;1.77;;;1.35;;
47922;SDS011;33688;44.354;9.228;2023-02-19T14:06:06;1.42;;;1.17;;
47922;SDS011;33688;44.354;9.228;2023-02-19T14:08:46;1.35;;;1.10;;
47922;SDS011;33688;44.354;9.228;2023-02-19T14:11:13;1.45;;;1.33;;
47922;SDS011;33688;44.354;9.228;2023-02-19T14:16:49;1.10;;;1.00;;
47922;SDS011;33688;44.354;9.228;2023-02-19T14:19:13;1.83;;;1.13;;
47922;SDS011;33688;44.354;9.228;2023-02-19T14:21:40;1.42;;;1.33;;
47922;SDS011;33688;44.354;9.228;2023-02-19T14:24:11;2.30;;;1.40;;
47922;SDS011;33688;44.354;9.228;2023-02-19T14:26:39;1.20;;;1.10;;
47922;SDS011;33688;44.354;9.228;2023-02-19T14:29:06;1.30;;;1.20;;
47922;SDS011;33688;44.354;9.228;2023-02-19T14:31:35;1.83;;;1.42;;
47922;SDS011;33688;44.354;9.228;2023-02-19T14:34:18;1.40;;;1.20;;
47922;SDS011;33688;44.354;9.228;2023-02-19T14:36:47;2.20;;;1.35;;
47922;SDS011;33688;44.354;9.228;2023-02-19T14:39:17;1.30;;;1.20;;
47922;SDS011;33688;44.354;9.228;2023-02-19T14:41:45;1.63;;;1.10;;
47922;SDS011;33688;44.354;9.228;2023-02-19T14:44:14;1.45;;;1.13;;
47922;SDS011;33688;44.354;9.228;2023-02-19T14:47:07;3.75;;;2.00;;
47922;SDS011;33688;44.354;9.228;2023-02-19T14:49:35;2.75;;;1.50;;
47922;SDS011;33688;44.354;9.228;2023-02-19T14:52:29;2.42;;;1.20;;
47922;SDS011;33688;44.354;9.228;2023-02-19T14:54:58;1.48;;;1.25;;
47922;SDS011;33688;44.354;9.228;2023-02-19T14:57:27;1.30;;;1.20;;
47922;SDS011;33688;44.354;9.228;2023-02-19T14:59:57;1.35;;;1.00;;
47922;SDS011;33688;44.354;9.228;2023-02-19T15:02:25;2.03;;;1.60;;
47922;SDS011;33688;44.354;9.228;2023-02-19T15:04:52;1.35;;;1.23;;
47922;SDS011;33688;44.354;9.228;2023-02-19T15:07:29;1.50;;;1.40;;
47922;SDS011;33688;44.354;9.228;2023-02-19T15:09:57;1.50;;;1.40;;
47922;SDS011;33688;44.354;9.228;2023-02-19T15:12:49;1.67;;;1.20;;
47922;SDS011;33688;44.354;9.228;2023-02-19T15:15:23;1.50;;;1.10;;
47922;SDS011;33688;44.354;9.228;2023-02-19T15:17:51;1.33;;;1.10;;
47922;SDS011;33688;44.354;9.228;2023-02-19T15:20:18;2.88;;;1.40;;
47922;SDS011;33688;44.354;9.228;2023-02-19T15:22:46;2.70;;;1.42;;
47922;SDS011;33688;44.354;9.228;2023-02-19T15:25:18;1.75;;;1.20;;
47922;SDS011;33688;44.354;9.228;2023-02-19T15:27:45;2.53;;;1.50;;
47922;SDS011;33688;44.354;9.228;2023-02-19T15:30:29;4.10;;;1.40;;
47922;SDS011;33688;44.354;9.228;2023-02-19T15:32:58;2.45;;;1.65;;
47922;SDS011;33688;44.354;9.228;2023-02-19T15:35:28;1.60;;;1.30;;
47922;SDS011;33688;44.354;9.228;2023-02-19T15:37:54;2.60;;;1.52;;
47922;SDS011;33688;44.354;9.228;2023-02-19T15:40:22;2.53;;;1.50;;
47922;SDS011;33688;44.354;9.228;2023-02-19T15:42:50;1.80;;;1.30;;
47922;SDS011;33688;44.354;9.228;2023-02-19T15:45:19;2.55;;;1.30;;
47922;SDS011;33688;44.354;9.228;2023-02-19T15:48:03;3.22;;;1.55;;
47922;SDS011;33688;44.354;9.228;2023-02-19T15:50:44;5.00;;;1.40;;
47922;SDS011;33688;44.354;9.228;2023-02-19T15:53:13;2.15;;;1.25;;
47922;SDS011;33688;44.354;9.228;2023-02-19T15:58:40;1.20;;;1.10;;
47922;SDS011;33688;44.354;9.228;2023-02-19T16:01:14;1.77;;;1.23;;
47922;SDS011;33688;44.354;9.228;2023-02-19T16:03:51;1.83;;;1.20;;
47922;SDS011;33688;44.354;9.228;2023-02-19T16:06:18;1.80;;;1.48;;
47922;SDS011;33688;44.354;9.228;2023-02-19T16:09:15;1.60;;;1.38;;
47922;SDS011;33688;44.354;9.228;2023-02-19T16:11:35;1.40;;;1.30;;
47922;SDS011;33688;44.354;9.228;2023-02-19T16:16:43;5.22;;;1.63;;
47922;SDS011;33688;44.354;9.228;2023-02-19T16:19:11;2.40;;;1.70;;
47922;SDS011;33688;44.354;9.228;2023-02-19T16:21:36;2.40;;;1.42;;
47922;SDS011;33688;44.354;9.228;2023-02-19T16:24:10;4.13;;;1.60;;
47922;SDS011;33688;44.354;9.228;2023-02-19T16:26:39;1.95;;;1.50;;
47922;SDS011;33688;44.354;9.228;2023-02-19T16:29:14;2.72;;;2.45;;
47922;SDS011;33688;44.354;9.228;2023-02-19T16:31:52;1.30;;;1.20;;
47922;SDS011;33688;44.354;9.228;2023-02-19T16:34:31;3.13;;;1.85;;
47922;SDS011;33688;44.354;9.228;2023-02-19T16:42:35;3.53;;;1.42;;
47922;SDS011;33688;44.354;9.228;2023-02-19T16:45:21;1.83;;;1.50;;
47922;SDS011;33688;44.354;9.228;2023-02-19T16:47:47;2.03;;;1.23;;
47922;SDS011;33688;44.354;9.228;2023-02-19T16:50:21;2.42;;;1.38;;
47922;SDS011;33688;44.354;9.228;2023-02-19T16:55:23;2.65;;;1.30;;
47922;SDS011;33688;44.354;9.228;2023-02-19T16:57:50;1.58;;;1.10;;
47922;SDS011;33688;44.354;9.228;2023-02-19T17:00:17;1.75;;;1.33;;
47922;SDS011;33688;44.354;9.228;2023-02-19T17:02:47;1.65;;;1.20;;
47922;SDS011;33688;44.354;9.228;2023-02-19T17:05:15;1.40;;;1.10;;
47922;SDS011;33688;44.354;9.228;2023-02-19T17:07:41;1.25;;;1.02;;
47922;SDS011;33688;44.354;9.228;2023-02-19T17:10:07;1.35;;;1.10;;
47922;SDS011;33688;44.354;9.228;2023-02-19T17:12:34;2.15;;;1.20;;
47922;SDS011;33688;44.354;9.228;2023-02-19T17:15:00;1.92;;;1.10;;
47922;SDS011;33688;44.354;9.228;2023-02-19T17:17:25;1.27;;;1.10;;
47922;SDS011;33688;44.354;9.228;2023-02-19T17:19:51;1.20;;;1.10;;
47922;SDS011;33688;44.354;9.228;2023-02-19T17:22:16;1.70;;;1.48;;
47922;SDS011;33688;44.354;9.228;2023-02-19T17:24:42;1.13;;;1.02;;
47922;SDS011;33688;44.354;9.228;2023-02-19T17:27:10;1.25;;;1.05;;
47922;SDS011;33688;44.354;9.228;2023-02-19T17:29:38;2.38;;;1.30;;
47922;SDS011;33688;44.354;9.228;2023-02-19T17:32:04;2.55;;;1.48;;